Time;durP1;ratioP1;P1;durP2;ratioP2;P2;SDS_P1;SDS_P2;PMS_P1;PMS_P2;Temp;Humidity;BMP_temperature;BMP_pressure;BME280_temperature;BME280_humidity;BME280_pressure;Samples;Min_cycle;Max_cycle;Signal;HPM_P1;HPM_P2
2024/02/04 00:00:28;;;;;;;7.07;0.40;;;;;;;2.47;61.27;98936.09;5072029;28;20079;-78
2024/02/04 00:02:55;;;;;;;6.55;0.20;;;;;;;2.46;61.17;98921.50;5072758;28;20072;-78
2024/02/04 00:05:22;;;;;;;2.60;0.55;;;;;;;2.45;61.21;98930.97;5074822;28;20102;-77
2024/02/04 00:07:49;;;;;;;4.55;0.30;;;;;;;2.44;61.11;98929.25;5074374;28;20040;-79
2024/02/04 00:10:18;;;;;;;3.80;0.10;;;;;;;2.44;61.14;98938.75;5070468;28;20079;-74
2024/02/04 00:12:45;;;;;;;1.17;0.10;;;;;;;2.44;61.25;98936.16;5070810;28;20076;-75
2024/02/04 00:15:12;;;;;;;3.55;0.20;;;;;;;2.43;61.37;98931.88;5066775;28;20079;-74
2024/02/04 00:17:40;;;;;;;4.50;0.20;;;;;;;2.42;61.20;98941.38;5070437;28;20083;-75
2024/02/04 00:20:09;;;;;;;2.45;0.20;;;;;;;2.41;61.26;98938.81;5068922;28;20080;-74
2024/02/04 00:22:36;;;;;;;5.20;0.95;;;;;;;2.41;61.14;98937.06;5071549;28;20105;-75
2024/02/04 00:25:04;;;;;;;0.90;0.20;;;;;;;2.40;61.29;98947.44;5057008;28;20155;-75
2024/02/04 00:27:32;;;;;;;4.00;0.20;;;;;;;2.38;61.25;98932.81;5071278;28;20049;-75
2024/02/04 00:29:59;;;;;;;2.15;0.10;;;;;;;2.37;61.50;98944.03;5071447;28;20541;-75
2024/02/04 00:32:26;;;;;;;2.90;0.20;;;;;;;2.34;61.32;98936.34;5070111;28;20052;-75
2024/02/04 00:34:54;;;;;;;4.70;0.55;;;;;;;2.36;61.49;98937.16;5067707;28;20123;-74
2024/02/04 00:37:22;;;;;;;6.35;0.20;;;;;;;2.36;61.26;98949.22;5069083;28;20167;-75
2024/02/04 00:39:49;;;;;;;4.03;0.20;;;;;;;2.35;61.11;98939.75;5070591;28;20048;-75
2024/02/04 00:42:15;;;;;;;2.17;0.10;;;;;;;2.34;61.38;98931.19;5071024;28;20072;-75
2024/02/04 00:44:42;;;;;;;1.67;1.00;;;;;;;2.34;61.44;98943.25;5069402;28;20127;-74
2024/02/04 00:47:09;;;;;;;2.40;0.10;;;;;;;2.33;61.59;98954.41;5068392;28;20076;-75
2024/02/04 00:49:36;;;;;;;3.25;0.63;;;;;;;2.32;61.42;98951.00;5068882;28;20510;-74
2024/02/04 00:52:05;;;;;;;8.50;0.30;;;;;;;2.32;61.38;98953.56;5070040;28;20501;-74
2024/02/04 00:54:32;;;;;;;7.13;0.35;;;;;;;2.29;61.39;98943.31;5069299;28;20080;-74
2024/02/04 00:57:00;;;;;;;1.95;0.13;;;;;;;2.28;61.51;98949.34;5070160;28;20057;-75
2024/02/04 00:59:27;;;;;;;5.95;0.20;;;;;;;2.31;61.50;98957.03;5070472;28;20052;-75
2024/02/04 01:01:55;;;;;;;1.10;0.10;;;;;;;2.30;61.59;98933.84;5071030;28;20071;-75
2024/02/04 01:04:23;;;;;;;1.83;0.20;;;;;;;2.30;61.63;98946.72;5068927;28;20483;-75
2024/02/04 01:06:50;;;;;;;2.78;0.45;;;;;;;2.29;61.64;98955.38;5068184;28;20040;-74
2024/02/04 01:09:19;;;;;;;4.22;0.45;;;;;;;2.28;61.58;98943.34;5065636;28;20076;-73
2024/02/04 01:11:46;;;;;;;2.20;0.10;;;;;;;2.27;61.43;98957.13;5067768;28;20076;-73
2024/02/04 01:14:13;;;;;;;1.60;0.10;;;;;;;2.26;61.24;98958.84;5069022;28;20123;-73
2024/02/04 01:16:40;;;;;;;1.05;0.10;;;;;;;2.24;61.29;98963.19;5068229;28;20483;-75
2024/02/04 01:19:07;;;;;;;2.30;0.20;;;;;;;2.24;61.26;98957.16;5067608;28;20512;-72
2024/02/04 01:21:34;;;;;;;3.05;0.22;;;;;;;2.22;61.34;98959.78;5072171;28;20127;-77
2024/02/04 01:24:01;;;;;;;6.28;0.10;;;;;;;2.21;60.95;98952.91;5070726;28;20123;-77
2024/02/04 01:26:29;;;;;;;2.83;0.20;;;;;;;2.22;60.90;98971.84;5069442;28;20076;-78
2024/02/04 01:28:56;;;;;;;5.70;0.20;;;;;;;2.19;61.03;98949.53;5072945;28;20084;-78
2024/02/04 01:31:23;;;;;;;1.73;0.10;;;;;;;2.19;60.96;98959.84;5069821;28;20064;-78
2024/02/04 01:33:50;;;;;;;2.25;0.10;;;;;;;2.18;60.62;98960.72;5069266;28;20126;-77
2024/02/04 01:36:17;;;;;;;3.38;0.15;;;;;;;2.16;60.78;98959.91;5071427;28;20091;-78
2024/02/04 01:38:44;;;;;;;1.90;0.05;;;;;;;2.16;60.18;98959.91;5071106;28;20466;-77
2024/02/04 01:41:11;;;;;;;1.85;0.00;;;;;;;2.15;60.35;98953.88;5069374;28;20118;-77
2024/02/04 01:43:40;;;;;;;2.30;0.00;;;;;;;2.15;60.03;98960.78;5071087;28;20087;-77
2024/02/04 01:46:07;;;;;;;4.80;0.17;;;;;;;2.14;60.09;98962.50;5070582;28;20559;-77
2024/02/04 01:48:34;;;;;;;2.38;0.10;;;;;;;2.15;60.02;98965.94;5070444;28;20075;-77
2024/02/04 01:51:02;;;;;;;0.65;0.00;;;;;;;2.15;60.26;98973.66;5066834;28;20079;-77
2024/02/04 01:53:31;;;;;;;2.20;0.10;;;;;;;2.11;60.12;98977.19;5070153;28;20048;-77
2024/02/04 01:55:58;;;;;;;0.22;0.00;;;;;;;2.09;59.76;98966.88;5069913;28;20068;-77
2024/02/04 01:58:25;;;;;;;1.65;0.00;;;;;;;2.14;60.01;98980.56;5065922;28;20493;-78
2024/02/04 02:00:54;;;;;;;0.95;0.00;;;;;;;2.14;59.87;98977.13;5065175;28;20036;-78
2024/02/04 02:03:22;;;;;;;1.35;0.47;;;;;;;2.12;59.86;98973.72;5073470;28;20108;-78
2024/02/04 02:05:50;;;;;;;2.22;0.15;;;;;;;2.13;59.43;98972.84;5069835;28;20159;-77
2024/02/04 02:08:17;;;;;;;0.55;0.25;;;;;;;2.12;59.79;98969.41;5069824;28;20072;-77
2024/02/04 02:10:49;;;;;;;0.60;0.00;;;;;;;2.12;59.81;98968.56;5066020;28;20079;-78
2024/02/04 02:13:21;;;;;;;0.43;0.10;;;;;;;2.12;59.60;98968.56;5066055;28;20049;-78
2024/02/04 02:15:52;;;;;;;1.92;0.10;;;;;;;2.12;59.62;98976.31;5070486;28;20048;-78
2024/02/04 02:18:28;;;;;;;2.28;1.00;;;;;;;2.11;59.77;98967.72;5065516;28;20053;-77
2024/02/04 02:21:14;;;;;;;0.40;0.00;;;;;;;2.09;59.79;98968.63;5066847;28;20156;-74
2024/02/04 02:23:49;;;;;;;1.48;0.22;;;;;;;2.10;59.42;98978.06;5068727;28;20079;-74
2024/02/04 02:26:19;;;;;;;0.98;0.20;;;;;;;2.09;59.44;98973.78;5067087;28;20048;-75
2024/02/04 02:28:46;;;;;;;3.00;0.00;;;;;;;2.09;59.52;98973.78;5068420;28;20075;-75
2024/02/04 02:31:13;;;;;;;0.55;0.05;;;;;;;2.08;59.45;98977.25;5070760;28;20076;-77
2024/02/04 02:33:40;;;;;;;2.30;0.10;;;;;;;2.08;59.53;98990.16;5066588;28;20072;-77
2024/02/04 02:36:14;;;;;;;0.30;0.10;;;;;;;2.08;59.11;98995.31;5068068;28;20138;-77
2024/02/04 02:38:48;;;;;;;1.42;0.10;;;;;;;2.08;59.12;98997.88;5068186;28;20055;-78
2024/02/04 02:41:18;;;;;;;4.35;0.10;;;;;;;2.07;58.98;98997.00;5071264;28;20537;-79
2024/02/04 02:43:47;;;;;;;3.83;0.10;;;;;;;2.08;58.89;98995.31;5067753;28;20079;-77
2024/02/04 02:46:15;;;;;;;3.38;0.10;;;;;;;2.03;58.91;98979.03;5070656;28;20110;-77
2024/02/04 02:48:42;;;;;;;0.40;0.00;;;;;;;2.06;58.66;98986.72;5069534;28;20071;-77
2024/02/04 02:51:09;;;;;;;1.15;0.10;;;;;;;2.06;58.77;98991.88;5071166;28;20076;-78
2024/02/04 02:53:36;;;;;;;1.00;0.10;;;;;;;2.05;58.64;98992.78;5064502;28;20147;-77
2024/02/04 02:56:04;;;;;;;0.10;0.00;;;;;;;2.04;58.41;98993.63;5066573;28;20128;-77
2024/02/04 02:58:32;;;;;;;0.35;0.00;;;;;;;2.03;58.50;98984.22;5067710;28;20045;-77
2024/02/04 03:00:59;;;;;;;0.50;0.00;;;;;;;2.03;58.38;98984.22;5063781;28;20064;-78
2024/02/04 03:03:26;;;;;;;0.77;0.00;;;;;;;2.03;58.34;98989.38;5068846;28;20111;-77
2024/02/04 03:05:53;;;;;;;0.13;0.05;;;;;;;2.01;58.33;98996.28;5068087;28;20107;-77
2024/02/04 03:08:20;;;;;;;1.85;0.10;;;;;;;1.99;58.19;98993.72;5067024;28;20084;-77
2024/02/04 03:10:47;;;;;;;0.00;0.00;;;;;;;2.00;58.10;98999.72;5063089;28;20091;-77
2024/02/04 03:13:14;;;;;;;3.40;0.10;;;;;;;1.97;57.87;99000.63;5064098;28;20779;-78
2024/02/04 03:15:42;;;;;;;0.43;0.00;;;;;;;1.99;58.08;98992.84;5069595;28;20414;-77
2024/02/04 03:18:10;;;;;;;1.75;0.00;;;;;;;1.98;57.86;99001.47;5065259;28;20562;-78
2024/02/04 03:20:36;;;;;;;2.90;0.05;;;;;;;1.94;57.58;98995.53;5068634;28;20487;-77
2024/02/04 03:23:04;;;;;;;0.20;0.00;;;;;;;1.97;57.86;98999.78;5067593;28;20479;-77
2024/02/04 03:25:31;;;;;;;1.10;0.03;;;;;;;1.96;57.71;99006.69;5067118;28;20044;-78
2024/02/04 03:27:58;;;;;;;1.25;0.40;;;;;;;1.96;57.92;99003.22;5070516;28;20076;-78
2024/02/04 03:30:25;;;;;;;1.15;0.00;;;;;;;1.94;58.03;98995.53;5070324;28;20072;-74
2024/02/04 03:32:53;;;;;;;3.03;0.10;;;;;;;1.96;57.35;99003.22;5072066;28;20076;-72
2024/02/04 03:35:21;;;;;;;0.30;0.00;;;;;;;1.94;57.92;98995.53;5068598;28;20705;-73
2024/02/04 03:37:48;;;;;;;0.50;0.00;;;;;;;1.93;57.24;98992.09;5071871;28;20075;-73
2024/02/04 03:40:15;;;;;;;0.50;0.38;;;;;;;1.93;57.61;98994.69;5072592;28;20102;-73
2024/02/04 03:42:42;;;;;;;2.10;0.10;;;;;;;1.93;57.30;98988.66;5068948;28;20875;-73
2024/02/04 03:45:10;;;;;;;1.65;0.00;;;;;;;1.92;57.40;98984.38;5068266;28;20106;-72
2024/02/04 03:47:37;;;;;;;0.10;0.00;;;;;;;1.83;57.47;98987.94;5070127;28;20049;-73
2024/02/04 03:50:06;;;;;;;2.42;0.25;;;;;;;1.90;57.04;98992.16;5072565;28;20499;-73
2024/02/04 03:52:33;;;;;;;2.20;0.10;;;;;;;1.89;56.73;98982.69;5070030;28;20076;-73
2024/02/04 03:55:00;;;;;;;1.90;0.00;;;;;;;1.88;56.80;99000.78;5070102;28;20106;-73
2024/02/04 03:57:27;;;;;;;1.95;0.05;;;;;;;1.88;56.93;98996.47;5070887;28;20534;-72
2024/02/04 03:59:54;;;;;;;2.88;0.20;;;;;;;1.87;56.66;99010.22;5070675;28;20053;-73
2024/02/04 04:02:21;;;;;;;1.35;0.05;;;;;;;1.86;56.83;99016.28;5072089;28;20087;-73
2024/02/04 04:04:48;;;;;;;0.45;0.00;;;;;;;1.85;56.53;99012.00;5070549;28;20087;-72
2024/02/04 04:07:17;;;;;;;0.82;0.00;;;;;;;1.82;56.50;99006.03;5068747;28;20094;-73
2024/02/04 04:09:44;;;;;;;1.40;0.00;;;;;;;1.84;56.22;99023.16;5071458;28;20087;-72
2024/02/04 04:12:11;;;;;;;1.20;0.10;;;;;;;1.83;56.50;99024.06;5071558;28;20052;-73
2024/02/04 04:14:38;;;;;;;0.55;0.05;;;;;;;1.82;56.38;99026.69;5068490;28;20080;-72
2024/02/04 04:17:05;;;;;;;1.27;0.10;;;;;;;1.82;56.16;99018.94;5067861;28;20564;-72
2024/02/04 04:19:35;;;;;;;1.25;0.08;;;;;;;1.79;56.58;99022.41;5069231;28;20135;-72
2024/02/04 04:22:02;;;;;;;1.00;0.00;;;;;;;1.78;56.36;99022.41;5069185;28;20173;-72
2024/02/04 04:24:31;;;;;;;2.42;0.22;;;;;;;1.78;55.98;99028.41;5066665;28;20086;-72
2024/02/04 04:26:58;;;;;;;0.88;0.00;;;;;;;1.72;56.37;99018.19;5070264;28;20100;-72
2024/02/04 04:29:26;;;;;;;0.75;0.00;;;;;;;1.75;56.17;99027.63;5071166;28;20079;-73
2024/02/04 04:31:53;;;;;;;0.20;0.00;;;;;;;1.74;56.14;99028.50;5068579;28;20040;-72
2024/02/04 04:34:20;;;;;;;2.13;0.00;;;;;;;1.72;56.14;99025.94;5069575;28;20503;-73
2024/02/04 04:36:47;;;;;;;2.13;0.13;;;;;;;1.70;56.39;99031.13;5068786;28;20048;-72
2024/02/04 04:39:15;;;;;;;3.30;0.10;;;;;;;1.69;56.23;99026.00;5070067;28;20044;-74
2024/02/04 04:41:45;;;;;;;2.47;0.10;;;;;;;1.68;56.15;99024.28;5070673;28;20053;-73
2024/02/04 04:44:12;;;;;;;1.42;0.10;;;;;;;1.67;56.55;99020.00;5071316;28;20512;-73
2024/02/04 04:46:40;;;;;;;1.08;0.08;;;;;;;1.61;56.29;99012.34;5067907;28;20056;-72
2024/02/04 04:49:07;;;;;;;0.52;0.00;;;;;;;1.64;56.29;99025.19;5069100;28;20131;-72
2024/02/04 04:51:34;;;;;;;0.55;0.10;;;;;;;1.63;56.53;99034.66;5070453;28;20632;-76
2024/02/04 04:54:01;;;;;;;1.17;0.03;;;;;;;1.61;56.43;99027.81;5070358;28;20068;-75
2024/02/04 04:56:28;;;;;;;0.82;0.00;;;;;;;1.59;56.27;99040.75;5067093;28;20080;-75
2024/02/04 04:58:56;;;;;;;0.63;0.10;;;;;;;1.59;56.03;99029.56;5070171;28;20123;-75
2024/02/04 05:01:23;;;;;;;1.38;0.10;;;;;;;1.58;55.91;99035.59;5071022;28;20210;-75
2024/02/04 05:03:50;;;;;;;0.28;0.03;;;;;;;1.57;55.87;99036.47;5068465;28;20079;-74
2024/02/04 05:06:17;;;;;;;3.08;0.10;;;;;;;1.56;56.23;99030.47;5069446;28;20127;-74
2024/02/04 05:08:44;;;;;;;3.90;0.10;;;;;;;1.55;56.00;99038.22;5069121;28;20117;-75
2024/02/04 05:11:11;;;;;;;2.35;0.10;;;;;;;1.53;56.12;99030.50;5069882;28;20084;-75
2024/02/04 05:13:40;;;;;;;0.63;0.00;;;;;;;1.52;55.76;99039.13;5066190;28;20131;-75
2024/02/04 05:16:08;;;;;;;3.38;0.10;;;;;;;1.46;55.57;99034.03;5068644;28;20080;-75
2024/02/04 05:18:35;;;;;;;0.38;0.00;;;;;;;1.48;55.82;99033.16;5067403;28;20600;-75
2024/02/04 05:21:03;;;;;;;1.02;0.00;;;;;;;1.48;55.99;99040.03;5068565;28;20060;-75
2024/02/04 05:23:30;;;;;;;2.25;0.00;;;;;;;1.48;55.98;99046.03;5067372;28;20045;-75
2024/02/04 05:25:57;;;;;;;0.68;0.00;;;;;;;1.46;56.01;99052.09;5068349;28;20072;-75
2024/02/04 05:28:24;;;;;;;2.75;0.13;;;;;;;1.45;55.95;99053.81;5068968;28;20098;-75
2024/02/04 05:30:51;;;;;;;1.67;0.00;;;;;;;1.42;55.92;99056.44;5070617;28;20552;-74
2024/02/04 05:33:19;;;;;;;2.15;0.00;;;;;;;1.40;55.55;99053.03;5068704;28;20099;-75
2024/02/04 05:35:46;;;;;;;1.40;0.10;;;;;;;1.40;55.97;99065.91;5066672;28;20064;-75
2024/02/04 05:38:13;;;;;;;1.95;0.00;;;;;;;1.38;56.29;99047.03;5068665;28;20041;-74
2024/02/04 05:40:40;;;;;;;1.65;0.00;;;;;;;1.37;55.90;99049.63;5066095;28;20076;-74
2024/02/04 05:43:10;;;;;;;3.47;1.10;;;;;;;1.34;55.91;99055.69;5069351;28;20053;-74
2024/02/04 05:45:38;;;;;;;0.10;0.03;;;;;;;1.32;56.47;99060.00;5067461;28;20139;-75
2024/02/04 05:48:06;;;;;;;0.73;0.00;;;;;;;1.29;56.12;99052.31;5068949;28;20048;-74
2024/02/04 05:50:34;;;;;;;1.90;0.03;;;;;;;1.29;55.93;99060.03;5069781;28;20044;-74
2024/02/04 05:53:01;;;;;;;0.93;0.00;;;;;;;1.27;56.03;99059.19;5066229;28;20502;-75
2024/02/04 05:55:28;;;;;;;0.10;0.00;;;;;;;1.28;56.40;99060.03;5066719;28;20135;-74
2024/02/04 05:57:55;;;;;;;2.00;0.10;;;;;;;1.26;56.47;99062.66;5068550;28;20106;-75
2024/02/04 06:00:22;;;;;;;2.28;0.10;;;;;;;1.24;55.89;99059.22;5069167;28;20514;-76
2024/02/04 06:02:49;;;;;;;0.80;0.00;;;;;;;1.20;56.11;99055.84;5067261;28;20178;-76
2024/02/04 06:05:16;;;;;;;2.75;0.10;;;;;;;1.22;56.52;99068.69;5068065;28;20064;-77
2024/02/04 06:07:45;;;;;;;1.85;0.00;;;;;;;1.13;56.55;99050.78;5069631;28;20495;-77
2024/02/04 06:10:12;;;;;;;2.15;0.10;;;;;;;1.19;55.95;99066.16;5064367;28;20115;-77
2024/02/04 06:12:40;;;;;;;4.25;0.13;;;;;;;1.13;56.57;99061.06;5068270;28;20499;-77
2024/02/04 06:15:13;;;;;;;1.60;0.10;;;;;;;1.17;56.63;99067.91;5068001;28;20143;-77
2024/02/04 06:17:40;;;;;;;2.83;0.08;;;;;;;1.16;56.59;99076.50;5069267;28;20049;-76
2024/02/04 06:20:08;;;;;;;2.05;0.65;;;;;;;1.13;56.40;99066.22;5068709;28;20080;-76
2024/02/04 06:22:36;;;;;;;1.02;0.00;;;;;;;1.13;56.54;99068.81;5068340;28;20048;-77
2024/02/04 06:25:05;;;;;;;1.55;0.10;;;;;;;1.11;56.68;99086.88;5068683;28;20064;-76
2024/02/04 06:27:32;;;;;;;1.02;0.00;;;;;;;1.10;56.31;99080.00;5066304;28;20087;-77
2024/02/04 06:29:59;;;;;;;0.28;0.10;;;;;;;1.10;56.38;99079.16;5067947;28;20075;-77
2024/02/04 06:32:25;;;;;;;3.20;0.10;;;;;;;1.08;56.42;99078.31;5067447;28;20076;-76
2024/02/04 06:34:55;;;;;;;1.38;0.10;;;;;;;1.06;56.33;99085.22;5068392;28;20106;-78
2024/02/04 06:37:22;;;;;;;0.35;0.10;;;;;;;1.05;56.61;99079.22;5068312;28;20040;-76
2024/02/04 06:39:49;;;;;;;1.40;0.10;;;;;;;1.05;56.68;99088.66;5067962;28;20075;-76
2024/02/04 06:42:17;;;;;;;0.95;0.20;;;;;;;1.02;56.82;99092.97;5068361;28;20084;-77
2024/02/04 06:44:45;;;;;;;4.85;0.10;;;;;;;1.02;56.77;99087.81;5069351;28;20040;-77
2024/02/04 06:47:13;;;;;;;2.05;0.65;;;;;;;0.99;56.41;99085.28;5068454;28;20049;-76
2024/02/04 06:49:41;;;;;;;2.45;0.00;;;;;;;0.96;56.78;99071.56;5067957;28;20640;-77
2024/02/04 06:52:08;;;;;;;1.02;0.10;;;;;;;0.99;56.71;99084.41;5067851;28;20045;-76
2024/02/04 06:54:35;;;;;;;2.65;0.05;;;;;;;0.97;56.52;99089.59;5068214;28;20072;-76
2024/02/04 06:57:02;;;;;;;2.97;0.05;;;;;;;0.92;56.72;99088.78;5069006;28;20511;-77
2024/02/04 06:59:31;;;;;;;5.63;0.10;;;;;;;0.95;56.46;99088.75;5065699;28;20109;-72
2024/02/04 07:01:58;;;;;;;3.28;0.10;;;;;;;0.92;56.65;99088.78;5068738;28;20087;-72
2024/02/04 07:04:25;;;;;;;0.00;0.00;;;;;;;0.93;56.85;99087.91;5069291;28;20136;-72
2024/02/04 07:06:52;;;;;;;1.35;0.10;;;;;;;0.92;56.71;99086.22;5071082;28;20052;-72
2024/02/04 07:09:19;;;;;;;1.00;0.38;;;;;;;0.91;56.72;99076.78;5072952;28;20072;-76
2024/02/04 07:11:46;;;;;;;0.25;0.00;;;;;;;0.91;56.35;99088.81;5073758;28;20072;-77
2024/02/04 07:14:14;;;;;;;0.00;0.00;;;;;;;0.90;57.10;99087.09;5074421;28;20049;-77
2024/02/04 07:16:43;;;;;;;0.45;0.03;;;;;;;0.89;56.88;99088.81;5071576;28;20081;-77
2024/02/04 07:19:10;;;;;;;0.75;0.00;;;;;;;0.89;56.41;99083.66;5074256;28;20560;-78
2024/02/04 07:21:37;;;;;;;1.60;0.10;;;;;;;0.88;56.82;99081.09;5074404;28;20071;-78
2024/02/04 07:24:04;;;;;;;1.95;0.00;;;;;;;0.87;57.04;99077.66;5073612;28;20479;-77
2024/02/04 07:26:31;;;;;;;1.42;0.00;;;;;;;0.87;56.89;99069.09;5074514;28;20052;-77
2024/02/04 07:28:58;;;;;;;1.75;0.00;;;;;;;0.86;57.07;99065.69;5074143;28;20521;-78
2024/02/04 07:31:25;;;;;;;3.72;0.30;;;;;;;0.87;57.01;99066.53;5073322;28;20040;-78
2024/02/04 07:33:53;;;;;;;1.73;0.30;;;;;;;0.77;56.68;99042.63;5074213;28;20080;-78
2024/02/04 07:36:20;;;;;;;0.00;0.00;;;;;;;0.83;56.75;99063.16;5073066;28;20556;-78
2024/02/04 07:38:47;;;;;;;3.70;0.77;;;;;;;0.86;57.06;99051.97;5074501;28;20076;-77
2024/02/04 07:41:16;;;;;;;0.43;0.00;;;;;;;0.86;57.18;99057.97;5074319;28;20101;-77
2024/02/04 07:43:43;;;;;;;0.70;0.10;;;;;;;0.85;56.67;99045.97;5071359;28;20037;-77
2024/02/04 07:46:11;;;;;;;0.20;0.00;;;;;;;0.87;57.13;99058.81;5073165;28;20498;-77
2024/02/04 07:48:38;;;;;;;2.40;0.10;;;;;;;0.88;57.04;99050.19;5072235;28;20123;-78
2024/02/04 07:51:07;;;;;;;0.80;0.00;;;;;;;0.83;56.66;99049.44;5073734;28;20121;-79
2024/02/04 07:53:36;;;;;;;1.20;0.10;;;;;;;0.88;56.98;99056.22;5072069;28;20055;-78
2024/02/04 07:56:03;;;;;;;3.00;0.00;;;;;;;0.88;56.77;99056.22;5074254;28;20041;-77
2024/02/04 07:58:30;;;;;;;2.85;0.05;;;;;;;0.89;56.62;99057.91;5072781;28;20124;-77
2024/02/04 08:00:57;;;;;;;2.60;0.10;;;;;;;0.85;56.86;99047.66;5074329;28;20083;-77
2024/02/04 08:03:24;;;;;;;0.55;0.00;;;;;;;0.91;56.89;99048.47;5071764;28;20505;-77
2024/02/04 08:05:51;;;;;;;0.40;0.00;;;;;;;0.91;56.32;99058.75;5074115;28;20466;-77
2024/02/04 08:08:20;;;;;;;0.20;0.00;;;;;;;0.93;56.67;99054.44;5072792;28;20091;-77
2024/02/04 08:10:47;;;;;;;1.70;0.00;;;;;;;0.94;56.99;99052.72;5069073;28;20047;-77
2024/02/04 08:13:14;;;;;;;2.28;0.00;;;;;;;0.94;56.51;99056.16;5072787;28;20060;-77
2024/02/04 08:15:41;;;;;;;0.75;0.00;;;;;;;0.96;56.70;99050.97;5073157;28;20052;-77
2024/02/04 08:18:08;;;;;;;0.90;0.00;;;;;;;0.97;56.88;99047.53;5073542;28;20127;-77
2024/02/04 08:20:35;;;;;;;5.32;0.10;;;;;;;0.98;56.96;99057.81;5070310;28;20136;-71
2024/02/04 08:23:02;;;;;;;2.90;0.10;;;;;;;1.00;56.36;99052.66;5064326;28;20547;-71
2024/02/04 08:25:30;;;;;;;2.22;0.10;;;;;;;1.01;56.83;99067.22;5068795;28;20094;-72
2024/02/04 08:27:57;;;;;;;1.92;0.10;;;;;;;1.03;56.73;99065.50;5069353;28;20056;-72
2024/02/04 08:30:24;;;;;;;1.48;0.00;;;;;;;1.03;56.56;99066.34;5068974;28;20118;-72
2024/02/04 08:32:51;;;;;;;0.30;0.10;;;;;;;1.03;56.39;99053.47;5067614;28;20511;-72
2024/02/04 08:35:18;;;;;;;4.65;0.10;;;;;;;1.08;56.68;99052.53;5071998;28;20071;-72
2024/02/04 08:37:45;;;;;;;1.77;0.20;;;;;;;1.10;56.90;99055.97;5068551;28;20592;-74
2024/02/04 08:40:12;;;;;;;1.45;0.00;;;;;;;1.10;56.75;99049.09;5070642;28;20164;-73
2024/02/04 08:42:41;;;;;;;3.33;0.10;;;;;;;1.13;56.93;99053.34;5068228;28;20102;-72
2024/02/04 08:45:09;;;;;;;1.17;0.10;;;;;;;1.14;56.83;99047.34;5066633;28;20537;-72
2024/02/04 08:47:36;;;;;;;0.40;0.00;;;;;;;1.16;56.58;99056.78;5069589;28;20087;-72
2024/02/04 08:50:03;;;;;;;4.30;0.20;;;;;;;1.17;56.68;99044.72;5063461;28;20080;-72
2024/02/04 08:52:30;;;;;;;0.40;0.00;;;;;;;1.11;57.09;99039.66;5069245;28;20066;-72
2024/02/04 08:54:58;;;;;;;0.00;0.00;;;;;;;1.21;56.67;99065.28;5069033;28;20533;-72
2024/02/04 08:57:25;;;;;;;1.50;0.05;;;;;;;1.22;56.81;99061.84;5070257;28;20495;-72
2024/02/04 08:59:53;;;;;;;0.25;0.00;;;;;;;1.18;56.47;99039.53;5069438;28;20069;-72
2024/02/04 09:02:20;;;;;;;1.45;0.55;;;;;;;1.24;56.49;99051.50;5071468;28;20063;-72
2024/02/04 09:04:47;;;;;;;1.75;0.00;;;;;;;1.28;56.47;99039.44;5068985;28;20044;-72
2024/02/04 09:07:14;;;;;;;1.05;0.10;;;;;;;1.31;56.48;99044.56;5069806;28;20125;-72
2024/02/04 09:09:41;;;;;;;4.55;0.10;;;;;;;1.32;56.94;99047.09;5067762;28;20068;-72
2024/02/04 09:12:10;;;;;;;3.28;0.35;;;;;;;1.34;56.84;99045.38;5068715;28;20080;-72
2024/02/04 09:14:37;;;;;;;9.02;0.28;;;;;;;1.35;57.00;99047.06;5067638;28;20040;-72
2024/02/04 09:17:06;;;;;;;0.70;0.00;;;;;;;1.35;57.12;99039.34;5066593;28;20072;-72
2024/02/04 09:19:34;;;;;;;0.30;0.00;;;;;;;1.40;57.05;99040.13;5070173;28;20053;-79
2024/02/04 09:22:02;;;;;;;0.90;0.10;;;;;;;1.40;57.01;99028.97;5070270;28;20040;-79
2024/02/04 09:24:30;;;;;;;2.83;0.10;;;;;;;1.43;57.22;99029.78;5068681;28;20049;-79
2024/02/04 09:26:57;;;;;;;1.60;0.10;;;;;;;1.39;57.17;99027.25;5073221;28;20122;-79
2024/02/04 09:29:25;;;;;;;2.95;0.10;;;;;;;1.42;57.32;99025.50;5071448;28;20529;-72
2024/02/04 09:31:53;;;;;;;2.13;0.10;;;;;;;1.49;57.25;99028.84;5069210;28;20080;-71
2024/02/04 09:34:22;;;;;;;6.78;0.10;;;;;;;1.52;57.49;99027.97;5067232;28;20041;-72
2024/02/04 09:36:49;;;;;;;0.55;0.00;;;;;;;1.46;57.25;99014.28;5070608;28;20076;-71
2024/02/04 09:39:16;;;;;;;4.10;0.10;;;;;;;1.56;57.31;99030.47;5068438;28;20084;-71
2024/02/04 09:41:44;;;;;;;1.02;0.08;;;;;;;1.58;57.51;99027.88;5068809;28;20135;-71
2024/02/04 09:44:13;;;;;;;5.15;0.10;;;;;;;1.56;57.70;99021.88;5068467;28;20152;-71
2024/02/04 09:46:40;;;;;;;3.00;0.30;;;;;;;1.60;57.17;99026.13;5065844;28;20499;-71
2024/02/04 09:49:09;;;;;;;2.15;0.10;;;;;;;1.64;57.29;99032.94;5067590;28;20076;-71
2024/02/04 09:51:38;;;;;;;1.45;0.00;;;;;;;1.61;57.27;99012.34;5067777;28;20498;-71
2024/02/04 09:54:07;;;;;;;6.22;0.30;;;;;;;1.69;57.16;99023.41;5068839;28;20441;-72
2024/02/04 09:56:35;;;;;;;2.85;0.10;;;;;;;1.70;57.32;99027.69;5068056;28;20422;-72
2024/02/04 09:59:03;;;;;;;1.13;0.10;;;;;;;1.68;57.50;99026.88;5068348;28;20040;-72
2024/02/04 10:01:31;;;;;;;3.58;0.10;;;;;;;1.73;57.52;99027.63;5067768;28;20075;-72
2024/02/04 10:03:58;;;;;;;0.20;0.10;;;;;;;1.76;57.44;99027.63;5066772;28;20557;-72
2024/02/04 10:06:25;;;;;;;0.50;0.00;;;;;;;1.79;57.52;99022.41;5069503;28;20762;-72
2024/02/04 10:08:53;;;;;;;1.25;0.47;;;;;;;1.81;58.08;99024.94;5067252;28;20152;-71
2024/02/04 10:11:20;;;;;;;2.90;0.10;;;;;;;1.83;57.56;99031.78;5065733;28;20471;-72
2024/02/04 10:13:49;;;;;;;5.55;0.10;;;;;;;1.84;57.76;99030.91;5067916;28;20094;-72
2024/02/04 10:16:17;;;;;;;3.33;0.32;;;;;;;1.85;57.71;99022.31;5067974;28;20076;-71
2024/02/04 10:18:45;;;;;;;0.75;0.10;;;;;;;1.86;57.75;99016.28;5066389;28;20498;-71
2024/02/04 10:21:23;;;;;;;2.88;0.20;;;;;;;1.92;58.10;99013.59;5065774;28;20123;-71
2024/02/04 10:23:51;;;;;;;0.85;0.10;;;;;;;1.92;58.11;99012.75;5059094;28;20063;-70
2024/02/04 10:26:21;;;;;;;0.20;0.00;;;;;;;1.96;58.01;99005.81;5065253;28;20045;-70
2024/02/04 10:28:48;;;;;;;3.72;0.10;;;;;;;1.99;58.12;99013.50;5063956;28;20133;-71
2024/02/04 10:31:15;;;;;;;4.70;0.88;;;;;;;1.99;58.19;99003.16;5061530;28;20087;-74
2024/02/04 10:33:42;;;;;;;1.85;0.68;;;;;;;2.01;57.96;98993.69;5064654;28;20510;-73
2024/02/04 10:36:10;;;;;;;0.95;0.10;;;;;;;2.05;58.11;99005.69;5059407;28;20477;-73
2024/02/04 10:38:38;;;;;;;2.53;0.10;;;;;;;2.07;58.02;98997.00;5066203;28;20040;-73
2024/02/04 10:41:05;;;;;;;2.83;0.17;;;;;;;2.09;58.40;98994.41;5067899;28;20070;-77
2024/02/04 10:43:34;;;;;;;0.80;0.03;;;;;;;2.06;58.53;98986.72;5066681;28;21170;-76
2024/02/04 10:46:10;;;;;;;2.17;0.10;;;;;;;2.13;58.54;98986.63;5066035;28;20079;-77
2024/02/04 10:48:42;;;;;;;0.45;0.10;;;;;;;2.17;58.72;98983.97;5063765;28;20523;-77
2024/02/04 10:51:14;;;;;;;0.60;0.10;;;;;;;2.19;58.70;98990.81;5067713;28;20567;-76
2024/02/04 10:53:43;;;;;;;2.15;0.20;;;;;;;2.20;58.84;98984.75;5063716;28;20041;-77
2024/02/04 10:56:15;;;;;;;2.78;0.20;;;;;;;2.22;58.95;98977.00;5067347;28;20122;-77
2024/02/04 10:58:45;;;;;;;0.40;0.10;;;;;;;2.23;58.64;98976.97;5064527;28;20052;-77
2024/02/04 11:01:15;;;;;;;2.67;0.10;;;;;;;2.26;59.15;98970.91;5063081;28;20475;-76
2024/02/04 11:03:42;;;;;;;5.47;0.10;;;;;;;2.26;59.32;98974.34;5067492;28;20131;-76
2024/02/04 11:06:11;;;;;;;3.58;0.15;;;;;;;2.29;59.02;98968.28;5065899;28;20055;-77
2024/02/04 11:08:39;;;;;;;2.90;0.10;;;;;;;2.31;59.18;98964.78;5066151;28;20567;-77
2024/02/04 11:11:06;;;;;;;0.93;0.10;;;;;;;2.30;59.37;98960.50;5068355;28;20072;-76
2024/02/04 11:13:35;;;;;;;2.88;0.20;;;;;;;2.33;59.33;98960.47;5064947;28;20575;-76
2024/02/04 11:16:09;;;;;;;2.03;0.20;;;;;;;2.33;59.63;98955.28;5067673;28;20502;-76
2024/02/04 11:18:59;;;;;;;1.65;0.13;;;;;;;2.36;59.37;98951.81;5067520;28;20087;-77
2024/02/04 11:21:56;;;;;;;2.92;0.10;;;;;;;2.36;59.51;98947.50;5061990;28;20121;-76
2024/02/04 11:24:40;;;;;;;4.50;0.20;;;;;;;2.36;59.62;98944.91;5062192;28;20135;-77
2024/02/04 11:27:08;;;;;;;2.17;0.20;;;;;;;2.37;59.75;98943.19;5068740;28;20083;-76
2024/02/04 11:29:36;;;;;;;2.33;0.15;;;;;;;2.37;59.64;98943.19;5066638;28;20506;-77
2024/02/04 11:32:06;;;;;;;2.35;0.35;;;;;;;2.36;59.91;98934.59;5068518;28;20487;-76
2024/02/04 11:34:34;;;;;;;1.20;0.10;;;;;;;2.34;59.77;98933.75;5062427;28;20068;-77
2024/02/04 11:37:01;;;;;;;2.60;0.10;;;;;;;2.36;59.96;98952.66;5067291;28;20161;-76
2024/02/04 11:39:28;;;;;;;1.45;0.10;;;;;;;2.36;60.18;98946.66;5068323;28;20072;-80
2024/02/04 11:41:55;;;;;;;4.05;0.57;;;;;;;2.36;59.99;98942.34;5069627;28;20068;-79
2024/02/04 11:44:23;;;;;;;1.23;0.38;;;;;;;2.37;60.19;98949.19;5067928;28;20048;-80